Bark River, Michigan
Current Conditions -  °F | °C
As of 5:15 PM on Thursday 27 Nov 2014 (Local Time) from KESC Reporting Station
Clear Clear  
Wind Chill: -16°   Ceiling: Unl
Heat Index: -10°   Visibility: 10mi
Dew Point: -18°   Wind: 7mph
Humidity: 53%   Direction: 310°NW
Pressure: 30.34"   Gusts: NA
Location:  45.71°N, 87.3°W
Report Text: KESC 272215Z AUTO 31006KT 10SM CLR M10/M18 A3034 RMK AO1
Loading
Personal Weather Stations






























Interactive Weather Map New forecast layout! Learn more

10-Day Weather Forecast

Advertisements
Track Severe Weather on mobile